Morgantown, WV (26505)

4:18 PM EDT on August 25, 2016 (GMT -0400)
Brooks green roof | | Change Station

Elev 873 ft 39.64 °N, 79.96 °W | Updated 8 minutes ago

Mostly Cloudy
Mostly Cloudy
85.8 °F
Feels Like 95 °F
N
3.1
Wind Variable Wind from SSW
Gusts 4.0 mph

Today
High -- | Low -- °F
--% Chance of Precip.
Yesterday
High -- | Low -- °F
Precip. -- in
Pressure 30.06 in
Visibility 10.0 miles
Clouds Scattered Clouds 2700 ft
Mostly Cloudy 5500 ft
Heat Index 95 °F
Dew Point 75 °F
Humidity 70%
Rainfall 0.11 in
Snow Depth Not available.
6:42 AM 8:00 PM
Last Quarter, 42% visible
METAR KMGW 251953Z 24006KT 10SM SCT027 BKN055 29/22 A3009 RMK AO2 SLP177 T02940217
Pressure 30.06 in
Visibility 10.0 miles
Clouds Scattered Clouds 2700 ft
Mostly Cloudy 5500 ft
Heat Index 95 °F
Dew Point 75 °F
Humidity 70%
Rainfall 0.11 in
Snow Depth Not available.
6:42 AM 8:00 PM
Last Quarter, 42% visible
METAR KMGW 251953Z 24006KT 10SM SCT027 BKN055 29/22 A3009 RMK AO2 SLP177 T02940217
A tropical disturbance pushing toward the Bahamas, is expected to develop into a tropical depression or storm, and will likely target Florida and the Gulf Coast this weekend into next week.

Right now, the disturbance remains a broad area of low pressure pushing through the Dominican Republic and Haiti, headed toward the southeast Bahamas. Rainfall totals over 3 inches (with locally higher amounts) are expected in HispaƱiola, particularly over elevated terrain.

10-Day Weather Forecast

Almanac

Astronomy

Aug. 25, 2016 Rise Set
Actual Time
Civil Twilight
Nautical Twilight
Astronomical Twilight
Moon
Length of Visible Light
Length of Day
Tomorrow will be .
, % of the Moon is Illuminated

Today's Extremes

State Highs State Lows

Community

WunderPhotos

Upload Photos

1,934,921 photos uploaded!

WunderBlog® & News

Nearby

Air Quality

  Air Quality AQ Index Pollutant
Not available.

Snow Depth

Station Depth Elevation

Earthquake Activity

City Distance Mag. Time & Date
Minimum magnitude displayed is 2.5.

Coastal Water Temperatures

Place Temperature

Stations

Nearby Weather Stations

Station Location Temp. Windchill Dew Point Humidity Wind Precip. Elev Updated Type
                   

Watches & Warnings

There are currently no watches in effect.